Flugplatz Würzburg-Schenkenturm

Für EDFW sind keine METAR/TAF Berichte vorhanden.
Es werden die Flugwettermeldungen vom Flugplatz Niederstetten Airport in 47 km Entfernung angezeigt.

Bericht für ETHN

vom 07.03. um 02:20 UTC

Wind 3 kt aus 130°

Sichtweite 10 km oder mehr

gering bewölkt in 34000 ft

Temperatur -3.0°C

Taupunkt -9.0°C

Luftfeuchtigkeit 63%

Luftdruck 1025 hPa

ETHN 070220Z 13003KT 9999 FEW340 M03/M09 Q1025 BLU+
Keine Prognose (TAF) verfügbar.
Impressum